createdAt,value
2023-09-10T00:00:41.326Z,96826.84
2023-09-10T00:03:07.949Z,96822.09
2023-09-10T00:05:34.595Z,96822.66
2023-09-10T00:08:04.849Z,96814.09
2023-09-10T00:10:34.347Z,96815.31
2023-09-10T00:13:03.744Z,96819.88
2023-09-10T00:15:30.172Z,96815.97
2023-09-10T00:17:56.759Z,96818.66
2023-09-10T00:20:23.204Z,96815.97
2023-09-10T00:22:49.802Z,96813.91
2023-09-10T00:25:16.743Z,96807.66
2023-09-10T00:27:43.163Z,96810.69
2023-09-10T00:30:10.298Z,96811.00
2023-09-10T00:32:36.824Z,96814.69
2023-09-10T00:35:04.634Z,96810.69
2023-09-10T00:37:31.142Z,96809.13
2023-09-10T00:39:57.531Z,96815.53
2023-09-10T00:42:24.259Z,96814.06
2023-09-10T00:44:50.877Z,96804.44
2023-09-10T00:47:17.520Z,96810.69
2023-09-10T00:49:45.226Z,96806.06
2023-09-10T00:52:12.457Z,96804.88
2023-09-10T00:54:39.896Z,96808.47
2023-09-10T00:57:06.463Z,96805.38
2023-09-10T00:59:32.905Z,96807.72
2023-09-10T01:01:59.551Z,96805.13
2023-09-10T01:04:26.222Z,96802.16
2023-09-10T01:06:53.391Z,96804.56
2023-09-10T01:09:22.958Z,96793.75
2023-09-10T01:12:12.394Z,96793.81
2023-09-10T01:14:46.490Z,96794.28
2023-09-10T01:17:26.568Z,96787.34
2023-09-10T01:19:53.066Z,96789.00
2023-09-10T01:22:54.762Z,96797.19
2023-09-10T01:25:22.640Z,96795.81
2023-09-10T01:27:49.020Z,96797.94
2023-09-10T01:30:15.430Z,96795.94
2023-09-10T01:33:02.712Z,96796.38
2023-09-10T01:35:41.132Z,96804.13
2023-09-10T01:38:38.748Z,96800.44
2023-09-10T01:41:12.009Z,96802.44
2023-09-10T01:43:38.790Z,96796.34
2023-09-10T01:46:07.471Z,96797.13
2023-09-10T01:48:34.186Z,96801.25
2023-09-10T01:51:00.729Z,96800.13
2023-09-10T01:53:27.259Z,96803.56
2023-09-10T01:55:53.802Z,96796.44
2023-09-10T01:58:20.253Z,96798.22
2023-09-10T02:00:46.670Z,96792.34
2023-09-10T02:03:13.308Z,96796.34
2023-09-10T02:05:42.457Z,96797.56
2023-09-10T02:08:08.933Z,96794.91
2023-09-10T02:10:36.386Z,96800.53
2023-09-10T02:13:04.171Z,96802.63
2023-09-10T02:15:31.047Z,96799.16
2023-09-10T02:17:57.848Z,96799.41
2023-09-10T02:20:24.293Z,96799.41
2023-09-10T02:22:50.758Z,96800.91
2023-09-10T02:25:17.410Z,96798.47
2023-09-10T02:27:43.832Z,96800.53
2023-09-10T02:30:10.487Z,96799.25
2023-09-10T02:32:38.072Z,96797.63
2023-09-10T02:35:04.954Z,96799.03
2023-09-10T02:37:32.742Z,96797.72
2023-09-10T02:39:59.137Z,96797.50
2023-09-10T02:42:25.671Z,96793.63
2023-09-10T02:44:52.073Z,96795.91
2023-09-10T02:47:18.658Z,96793.41
2023-09-10T02:49:45.066Z,96789.50
2023-09-10T02:52:11.675Z,96785.13
2023-09-10T02:54:38.144Z,96783.53
2023-09-10T02:57:04.691Z,96784.75
2023-09-10T02:59:31.120Z,96783.25
2023-09-10T03:01:57.531Z,96779.72
2023-09-10T03:04:24.090Z,96780.13
2023-09-10T03:06:51.705Z,96783.09
2023-09-10T03:09:18.584Z,96776.59
2023-09-10T03:11:46.529Z,96777.31
2023-09-10T03:14:13.120Z,96780.06
2023-09-10T03:16:40.550Z,96779.97
2023-09-10T03:19:07.426Z,96777.41
2023-09-10T03:21:33.837Z,96780.81
2023-09-10T03:24:00.272Z,96775.63
2023-09-10T03:26:26.904Z,96775.94
2023-09-10T03:28:53.356Z,96780.66
2023-09-10T03:31:19.833Z,96780.56
2023-09-10T03:33:46.230Z,96778.03
2023-09-10T03:36:12.795Z,96775.44
2023-09-10T03:38:39.548Z,96769.50
2023-09-10T03:41:06.306Z,96767.59
2023-09-10T03:43:32.798Z,96769.25
2023-09-10T03:45:59.241Z,96764.13
2023-09-10T03:48:25.698Z,96765.06
2023-09-10T03:50:52.122Z,96762.97
2023-09-10T03:53:18.577Z,96754.69
2023-09-10T03:55:45.453Z,96762.34
2023-09-10T03:58:11.852Z,96763.41
2023-09-10T04:00:38.455Z,96768.91
2023-09-10T04:03:06.036Z,96760.38
2023-09-10T04:05:32.637Z,96761.84
2023-09-10T04:07:59.108Z,96760.63
2023-09-10T04:10:28.106Z,96756.72
2023-09-10T04:12:54.602Z,96751.91
2023-09-10T04:15:21.039Z,96759.56
2023-09-10T04:17:47.597Z,96761.13
2023-09-10T04:20:14.684Z,96760.44
2023-09-10T04:22:41.359Z,96758.72
2023-09-10T04:25:08.334Z,96761.75
2023-09-10T04:27:34.808Z,96761.31
2023-09-10T04:30:01.197Z,96760.19
2023-09-10T04:32:27.620Z,96763.91
2023-09-10T04:34:54.300Z,96767.66
2023-09-10T04:37:21.598Z,96772.03
2023-09-10T04:39:48.316Z,96763.84
2023-09-10T04:42:14.826Z,96774.91
2023-09-10T04:44:41.268Z,96779.03
2023-09-10T04:47:07.720Z,96781.97
2023-09-10T04:49:34.190Z,96773.97
2023-09-10T04:52:00.669Z,96777.88
2023-09-10T04:54:27.197Z,96772.91
2023-09-10T04:56:55.976Z,96771.34
2023-09-10T04:59:23.749Z,96767.94
2023-09-10T05:01:50.600Z,96777.44
2023-09-10T05:04:17.165Z,96772.47
2023-09-10T05:06:46.248Z,96770.53
2023-09-10T05:09:12.732Z,96782.66
2023-09-10T05:11:39.207Z,96775.25
2023-09-10T05:14:05.630Z,96787.00
2023-09-10T05:16:32.167Z,96784.22
2023-09-10T05:18:58.682Z,96786.16
2023-09-10T05:21:25.136Z,96784.66
2023-09-10T05:23:51.592Z,96787.53
2023-09-10T05:26:18.057Z,96793.09
2023-09-10T05:28:46.990Z,96787.19
2023-09-10T05:31:14.196Z,96784.81
2023-09-10T05:33:40.674Z,96789.56
2023-09-10T05:36:07.521Z,96788.94
2023-09-10T05:38:34.105Z,96782.31
2023-09-10T05:41:03.274Z,96793.88
2023-09-10T05:43:30.961Z,96791.03
2023-09-10T05:45:57.710Z,96794.59
2023-09-10T05:48:24.573Z,96794.06
2023-09-10T05:50:55.739Z,96788.22
2023-09-10T05:53:22.195Z,96785.25
2023-09-10T05:55:48.876Z,96786.91
2023-09-10T05:58:15.389Z,96782.91
2023-09-10T06:00:41.808Z,96782.41
2023-09-10T06:03:10.803Z,96772.00
2023-09-10T06:05:37.428Z,96782.72
2023-09-10T06:08:04.124Z,96783.31
2023-09-10T06:10:30.531Z,96788.56
2023-09-10T06:12:57.009Z,96782.72
2023-09-10T06:15:23.494Z,96779.03
2023-09-10T06:17:49.954Z,96776.25
2023-09-10T06:20:16.464Z,96782.31
2023-09-10T06:22:42.925Z,96783.81
2023-09-10T06:25:09.585Z,96779.41
2023-09-10T06:27:36.555Z,96769.03
2023-09-10T06:30:03.368Z,96769.03
2023-09-10T06:32:29.958Z,96765.28
2023-09-10T06:34:56.689Z,96770.97
2023-09-10T06:37:23.191Z,96763.63
2023-09-10T06:39:49.688Z,96763.56
2023-09-10T06:42:16.165Z,96768.34
2023-09-10T06:44:44.339Z,96766.53
2023-09-10T06:47:11.481Z,96767.16
2023-09-10T06:49:40.709Z,96762.13
2023-09-10T06:52:09.847Z,96769.50
2023-09-10T06:54:36.260Z,96767.75
2023-09-10T06:57:02.815Z,96769.41
2023-09-10T06:59:29.519Z,96766.63
2023-09-10T07:01:56.217Z,96764.28
2023-09-10T07:04:25.713Z,96762.22
2023-09-10T07:06:53.498Z,96760.31
2023-09-10T07:09:23.156Z,96763.16
2023-09-10T07:11:54.337Z,96766.34
2023-09-10T07:14:21.965Z,96763.91
2023-09-10T07:16:49.611Z,96769.47
2023-09-10T07:19:16.861Z,96762.78
2023-09-10T07:21:44.234Z,96765.56
2023-09-10T07:24:10.980Z,96772.59
2023-09-10T07:26:38.116Z,96762.13
2023-09-10T07:29:05.860Z,96767.22
2023-09-10T07:31:33.894Z,96767.97
2023-09-10T07:34:01.488Z,96773.38
2023-09-10T07:36:27.897Z,96766.34
2023-09-10T07:38:56.031Z,96766.28
2023-09-10T07:41:23.001Z,96764.03
2023-09-10T07:43:49.441Z,96771.69
2023-09-10T07:46:15.869Z,96772.44
2023-09-10T07:48:42.319Z,96773.31
2023-09-10T07:51:08.834Z,96771.28
2023-09-10T07:53:35.234Z,96773.91
2023-09-10T07:56:01.676Z,96777.00
2023-09-10T07:58:28.151Z,96772.31
2023-09-10T08:00:57.359Z,96777.75
2023-09-10T08:03:24.293Z,96783.03
2023-09-10T08:05:50.801Z,96775.97
2023-09-10T08:08:17.254Z,96779.06
2023-09-10T08:10:45.078Z,96776.81
2023-09-10T08:13:13.617Z,96783.66
2023-09-10T08:15:43.524Z,96775.78
2023-09-10T08:18:12.839Z,96782.94
2023-09-10T08:20:40.675Z,96782.78
2023-09-10T08:23:08.070Z,96780.56
2023-09-10T08:25:34.830Z,96781.63
2023-09-10T08:28:02.170Z,96777.22
2023-09-10T08:30:29.313Z,96783.50
2023-09-10T08:32:55.953Z,96772.72
2023-09-10T08:35:23.549Z,96777.53
2023-09-10T08:37:50.458Z,96778.19
2023-09-10T08:40:17.729Z,96778.19
2023-09-10T08:42:55.383Z,96774.47
2023-09-10T08:45:23.709Z,96776.41
2023-09-10T08:47:55.655Z,96777.25
2023-09-10T08:50:24.687Z,96776.34
2023-09-10T08:52:53.281Z,96781.84
2023-09-10T08:55:19.923Z,96772.13
2023-09-10T08:57:47.075Z,96774.63
2023-09-10T09:00:14.082Z,96776.25
2023-09-10T09:02:41.978Z,96773.34
2023-09-10T09:05:09.362Z,96775.44
2023-09-10T09:07:47.263Z,96778.84
2023-09-10T09:10:22.378Z,96772.31
2023-09-10T09:12:53.714Z,96776.84
2023-09-10T09:15:21.259Z,96769.50
2023-09-10T09:17:48.118Z,96767.16
2023-09-10T09:20:17.923Z,96768.41
2023-09-10T09:22:48.635Z,96768.56
2023-09-10T09:25:15.919Z,96767.09
2023-09-10T09:27:43.564Z,96771.94
2023-09-10T09:30:12.131Z,96764.94
2023-09-10T09:32:40.131Z,96760.38
2023-09-10T09:35:10.437Z,96755.22
2023-09-10T09:37:37.718Z,96752.97
2023-09-10T09:40:05.443Z,96749.88
2023-09-10T09:42:32.092Z,96749.03
2023-09-10T09:44:58.577Z,96744.25
2023-09-10T09:47:25.174Z,96740.47
2023-09-10T09:49:52.041Z,96738.91
2023-09-10T09:52:19.333Z,96731.97
2023-09-10T09:54:49.497Z,96732.09
2023-09-10T09:57:17.873Z,96731.91
2023-09-10T09:59:44.984Z,96730.44
2023-09-10T10:02:16.353Z,96733.34
2023-09-10T10:04:46.358Z,96725.75
2023-09-10T10:07:23.432Z,96725.66
2023-09-10T10:09:52.978Z,96731.28
2023-09-10T10:12:20.276Z,96729.06
2023-09-10T10:14:48.662Z,96731.72
2023-09-10T10:17:17.501Z,96726.88
2023-09-10T10:19:44.770Z,96722.22
2023-09-10T10:22:11.554Z,96717.09
2023-09-10T10:24:40.353Z,96723.41
2023-09-10T10:27:07.976Z,96723.34
2023-09-10T10:29:35.258Z,96724.13
2023-09-10T10:32:26.521Z,96723.47
2023-09-10T10:35:00.136Z,96714.44
2023-09-10T10:37:52.288Z,96722.16
2023-09-10T10:40:31.638Z,96708.84
2023-09-10T10:43:20.435Z,96712.88
2023-09-10T10:45:48.665Z,96714.25
2023-09-10T10:48:19.754Z,96709.16
2023-09-10T10:50:47.922Z,96710.50
2023-09-10T10:53:25.367Z,96705.28
2023-09-10T10:55:54.603Z,96706.63
2023-09-10T10:58:22.418Z,96707.44
2023-09-10T11:00:50.247Z,96705.78
2023-09-10T11:03:17.969Z,96694.44
2023-09-10T11:06:05.647Z,96695.16
2023-09-10T11:08:43.337Z,96692.75
2023-09-10T11:11:39.070Z,96691.22
2023-09-10T11:14:07.503Z,96685.84
2023-09-10T11:16:39.717Z,96690.22
2023-09-10T11:19:06.157Z,96688.06
2023-09-10T11:21:57.278Z,96683.50
2023-09-10T11:24:23.773Z,96684.88
2023-09-10T11:26:50.327Z,96685.66
2023-09-10T11:29:19.347Z,96685.59
2023-09-10T11:31:52.659Z,96682.53
2023-09-10T11:34:19.349Z,96675.78
2023-09-10T11:36:55.419Z,96675.63
2023-09-10T11:39:22.697Z,96673.06
2023-09-10T11:41:51.534Z,96672.06
2023-09-10T11:44:18.279Z,96665.44
2023-09-10T11:46:47.371Z,96665.56
2023-09-10T11:49:14.865Z,96669.34
2023-09-10T11:51:46.078Z,96668.63
2023-09-10T11:54:19.615Z,96669.03
2023-09-10T11:56:52.473Z,96666.00
2023-09-10T11:59:21.979Z,96661.00
2023-09-10T12:01:48.502Z,96664.75
2023-09-10T12:04:18.006Z,96662.44
2023-09-10T12:06:45.351Z,96667.47
2023-09-10T12:09:12.005Z,96667.09
2023-09-10T12:11:39.778Z,96667.09
2023-09-10T12:14:06.747Z,96661.72
2023-09-10T12:16:33.384Z,96658.63
2023-09-10T12:19:00.513Z,96658.97
2023-09-10T12:21:27.681Z,96661.72
2023-09-10T12:23:54.205Z,96656.31
2023-09-10T12:26:21.028Z,96653.19
2023-09-10T12:28:47.866Z,96657.84
2023-09-10T12:31:14.637Z,96654.34
2023-09-10T12:33:42.002Z,96653.59
2023-09-10T12:36:08.731Z,96651.66
2023-09-10T12:38:35.268Z,96651.28
2023-09-10T12:41:02.008Z,96636.50
2023-09-10T12:43:29.142Z,96651.63
2023-09-10T12:45:55.954Z,96646.22
2023-09-10T12:48:22.786Z,96652.44
2023-09-10T12:50:50.993Z,96651.66
2023-09-10T12:53:17.758Z,96643.09
2023-09-10T12:55:44.272Z,96647.38
2023-09-10T12:58:13.963Z,96634.56
2023-09-10T13:00:40.875Z,96638.06
2023-09-10T13:03:08.700Z,96646.97
2023-09-10T13:05:35.599Z,96627.56
2023-09-10T13:08:02.568Z,96630.69
2023-09-10T13:10:29.158Z,96626.03
2023-09-10T13:12:55.809Z,96619.00
2023-09-10T13:15:22.233Z,96628.72
2023-09-10T13:17:49.063Z,96629.88
2023-09-10T13:20:16.522Z,96630.66
2023-09-10T13:22:45.119Z,96620.88
2023-09-10T13:25:12.037Z,96627.13
2023-09-10T13:27:38.523Z,96617.47
2023-09-10T13:30:06.919Z,96619.34
2023-09-10T13:32:33.512Z,96614.31
2023-09-10T13:35:00.111Z,96616.66
2023-09-10T13:37:27.152Z,96615.75
2023-09-10T13:39:53.699Z,96617.72
2023-09-10T13:42:20.118Z,96615.09
2023-09-10T13:44:46.498Z,96619.00
2023-09-10T13:47:12.977Z,96615.13
2023-09-10T13:49:39.396Z,96614.72
2023-09-10T13:52:07.013Z,96614.31
2023-09-10T13:54:33.434Z,96619.78
2023-09-10T13:56:59.820Z,96618.59
2023-09-10T13:59:26.472Z,96611.28
2023-09-10T14:01:52.943Z,96616.72
2023-09-10T14:04:19.421Z,96618.72
2023-09-10T14:06:45.829Z,96619.03
2023-09-10T14:09:12.322Z,96610.84
2023-09-10T14:11:38.833Z,96608.03
2023-09-10T14:14:05.421Z,96608.91
2023-09-10T14:16:31.997Z,96607.00
2023-09-10T14:18:58.434Z,96604.00
2023-09-10T14:21:24.975Z,96595.66
2023-09-10T14:23:51.529Z,96599.13
2023-09-10T14:26:18.979Z,96598.69
2023-09-10T14:28:45.517Z,96594.63
2023-09-10T14:31:12.021Z,96600.53
2023-09-10T14:33:39.122Z,96595.13
2023-09-10T14:36:05.930Z,96588.44
2023-09-10T14:38:32.371Z,96593.59
2023-09-10T14:40:59.004Z,96587.84
2023-09-10T14:43:25.431Z,96587.84
2023-09-10T14:45:51.887Z,96589.69
2023-09-10T14:48:18.538Z,96588.56
2023-09-10T14:50:45.210Z,96591.72
2023-09-10T14:53:11.610Z,96589.28
2023-09-10T14:55:38.138Z,96587.59
2023-09-10T14:58:07.013Z,96580.66
2023-09-10T15:00:34.229Z,96593.09
2023-09-10T15:03:01.314Z,96588.44
2023-09-10T15:05:28.037Z,96586.81
2023-09-10T15:07:54.571Z,96588.81
2023-09-10T15:10:21.004Z,96583.34
2023-09-10T15:12:47.391Z,96589.28
2023-09-10T15:15:14.591Z,96588.94
2023-09-10T15:17:41.307Z,96584.69
2023-09-10T15:20:08.670Z,96584.75
2023-09-10T15:22:35.255Z,96582.50
2023-09-10T15:25:01.799Z,96585.66
2023-09-10T15:27:28.250Z,96582.72
2023-09-10T15:29:56.999Z,96584.13
2023-09-10T15:32:24.036Z,96581.25
2023-09-10T15:34:50.604Z,96581.66
2023-09-10T15:37:17.109Z,96577.09
2023-09-10T15:39:43.609Z,96577.38
2023-09-10T15:42:10.172Z,96578.50
2023-09-10T15:44:36.718Z,96567.50
2023-09-10T15:47:05.004Z,96576.47
2023-09-10T15:49:31.679Z,96571.09
2023-09-10T15:51:58.165Z,96566.00
2023-09-10T15:54:24.679Z,96569.88
2023-09-10T15:56:51.572Z,96569.94
2023-09-10T15:59:18.092Z,96571.41
2023-09-10T16:01:44.548Z,96572.94
2023-09-10T16:04:11.240Z,96571.09
2023-09-10T16:06:37.970Z,96571.94
2023-09-10T16:09:06.774Z,96569.53
2023-09-10T16:11:33.828Z,96565.63
2023-09-10T16:14:00.328Z,96557.88
2023-09-10T16:16:28.164Z,96561.03
2023-09-10T16:18:59.314Z,96567.69
2023-09-10T16:21:27.439Z,96574.16
2023-09-10T16:23:54.046Z,96571.25
2023-09-10T16:26:20.535Z,96570.59
2023-09-10T16:28:47.171Z,96577.66
2023-09-10T16:31:13.643Z,96573.81
2023-09-10T16:33:40.576Z,96571.50
2023-09-10T16:36:07.356Z,96573.47
2023-09-10T16:38:33.803Z,96570.72
2023-09-10T16:41:00.360Z,96576.28
2023-09-10T16:43:26.827Z,96581.41
2023-09-10T16:45:56.139Z,96588.63
2023-09-10T16:48:22.633Z,96585.44
2023-09-10T16:50:49.096Z,96584.44
2023-09-10T16:53:15.659Z,96594.63
2023-09-10T16:55:49.238Z,96593.06
2023-09-10T16:58:15.639Z,96585.75
2023-09-10T17:00:43.639Z,96591.97
2023-09-10T17:03:10.224Z,96583.06
2023-09-10T17:05:36.888Z,96584.25
2023-09-10T17:08:04.829Z,96579.88
2023-09-10T17:10:31.718Z,96583.84
2023-09-10T17:12:58.285Z,96576.88
2023-09-10T17:15:24.839Z,96578.03
2023-09-10T17:17:51.330Z,96575.31
2023-09-10T17:20:17.866Z,96575.28
2023-09-10T17:22:46.185Z,96571.47
2023-09-10T17:25:12.640Z,96566.88
2023-09-10T17:27:39.215Z,96565.34
2023-09-10T17:30:06.502Z,96566.47
2023-09-10T17:32:33.008Z,96557.13
2023-09-10T17:34:59.691Z,96563.00
2023-09-10T17:37:27.056Z,96562.19
2023-09-10T17:39:54.817Z,96560.50
2023-09-10T17:42:21.492Z,96568.75
2023-09-10T17:44:48.535Z,96569.50
2023-09-10T17:47:18.832Z,96574.59
2023-09-10T17:49:55.180Z,96570.75
2023-09-10T17:52:27.849Z,96575.38
2023-09-10T17:54:54.859Z,96581.59
2023-09-10T17:57:21.676Z,96580.84
2023-09-10T17:59:48.222Z,96587.84
2023-09-10T18:02:14.682Z,96595.28
2023-09-10T18:04:41.181Z,96592.94
2023-09-10T18:07:07.707Z,96602.66
2023-09-10T18:09:34.498Z,96602.22
2023-09-10T18:12:00.976Z,96604.97
2023-09-10T18:14:27.425Z,96606.91
2023-09-10T18:16:55.033Z,96608.88
2023-09-10T18:19:22.652Z,96626.75
2023-09-10T18:21:52.339Z,96620.13
2023-09-10T18:24:19.421Z,96621.19
2023-09-10T18:26:47.570Z,96628.94
2023-09-10T18:29:14.399Z,96631.28
2023-09-10T18:31:41.006Z,96635.88
2023-09-10T18:34:07.439Z,96637.50
2023-09-10T18:36:34.019Z,96641.41
2023-09-10T18:39:01.504Z,96643.81
2023-09-10T18:41:28.020Z,96645.03
2023-09-10T18:43:54.494Z,96645.03
2023-09-10T18:46:21.038Z,96652.00
2023-09-10T18:48:48.041Z,96661.66
2023-09-10T18:51:14.500Z,96657.00
2023-09-10T18:53:41.256Z,96663.63
2023-09-10T18:56:07.994Z,96669.81
2023-09-10T18:58:34.537Z,96667.50
2023-09-10T19:01:03.050Z,96664.00
2023-09-10T19:03:30.649Z,96668.25
2023-09-10T19:05:59.846Z,96667.50
2023-09-10T19:08:27.545Z,96675.66
2023-09-10T19:10:59.096Z,96664.84
2023-09-10T19:13:26.460Z,96676.44
2023-09-10T19:15:53.072Z,96668.22
2023-09-10T19:18:20.137Z,96667.81
2023-09-10T19:20:48.150Z,96663.97
2023-09-10T19:23:14.741Z,96659.22
2023-09-10T19:25:41.311Z,96666.03
2023-09-10T19:28:08.221Z,96659.84
2023-09-10T19:30:35.899Z,96662.28
2023-09-10T19:33:02.486Z,96664.50
2023-09-10T19:35:29.198Z,96656.34
2023-09-10T19:37:55.982Z,96656.72
2023-09-10T19:40:23.130Z,96655.59
2023-09-10T19:42:50.032Z,96656.38
2023-09-10T19:45:18.426Z,96647.38
2023-09-10T19:47:46.479Z,96657.91
2023-09-10T19:50:13.605Z,96660.25
2023-09-10T19:52:44.584Z,96655.13
2023-09-10T19:55:12.203Z,96660.59
2023-09-10T19:57:39.723Z,96659.00
2023-09-10T20:00:07.510Z,96658.25
2023-09-10T20:02:34.442Z,96650.38
2023-09-10T20:05:01.268Z,96654.28
2023-09-10T20:07:29.326Z,96661.34
2023-09-10T20:09:56.091Z,96671.03
2023-09-10T20:12:24.110Z,96668.72
2023-09-10T20:14:51.022Z,96667.53
2023-09-10T20:17:17.683Z,96665.19
2023-09-10T20:19:44.610Z,96672.97
2023-09-10T20:22:11.391Z,96674.13
2023-09-10T20:24:38.795Z,96676.03
2023-09-10T20:27:05.641Z,96675.50
2023-09-10T20:29:33.689Z,96676.69
2023-09-10T20:32:00.491Z,96674.94
2023-09-10T20:34:27.188Z,96674.97
2023-09-10T20:36:53.987Z,96677.28
2023-09-10T20:39:20.805Z,96675.75
2023-09-10T20:41:47.725Z,96676.94
2023-09-10T20:44:14.233Z,96670.28
2023-09-10T20:46:40.779Z,96670.97
2023-09-10T20:49:07.368Z,96677.28
2023-09-10T20:51:33.826Z,96679.50
2023-09-10T20:54:00.492Z,96670.16
2023-09-10T20:56:27.068Z,96672.91
2023-09-10T20:58:54.466Z,96677.03
2023-09-10T21:01:21.006Z,96679.38
2023-09-10T21:03:47.713Z,96683.34
2023-09-10T21:06:15.361Z,96683.31
2023-09-10T21:08:41.991Z,96696.88
2023-09-10T21:11:08.552Z,96685.94
2023-09-10T21:13:35.061Z,96681.09
2023-09-10T21:16:01.901Z,96683.72
2023-09-10T21:18:29.753Z,96683.59
2023-09-10T21:20:56.173Z,96677.63
2023-09-10T21:23:22.921Z,96673.75
2023-09-10T21:25:49.519Z,96676.28
2023-09-10T21:28:15.912Z,96676.25
2023-09-10T21:30:42.392Z,96683.78
2023-09-10T21:33:08.920Z,96690.75
2023-09-10T21:35:35.535Z,96689.22
2023-09-10T21:38:02.062Z,96686.78
2023-09-10T21:40:28.493Z,96684.41
2023-09-10T21:42:54.892Z,96694.34
2023-09-10T21:45:21.301Z,96688.91
2023-09-10T21:47:47.849Z,96683.88
2023-09-10T21:50:14.436Z,96687.38
2023-09-10T21:52:41.036Z,96688.59
2023-09-10T21:55:07.935Z,96681.94
2023-09-10T21:57:34.406Z,96683.25
2023-09-10T22:00:00.873Z,96679.31
2023-09-10T22:02:27.378Z,96680.09
2023-09-10T22:04:53.900Z,96679.03
2023-09-10T22:07:20.314Z,96684.09
2023-09-10T22:09:46.945Z,96686.59
2023-09-10T22:12:13.505Z,96686.53
2023-09-10T22:14:40.026Z,96669.44
2023-09-10T22:17:06.503Z,96670.16
2023-09-10T22:19:32.903Z,96671.69
2023-09-10T22:21:59.386Z,96668.66
2023-09-10T22:24:25.831Z,96661.94
2023-09-10T22:26:52.463Z,96666.88
2023-09-10T22:29:18.970Z,96667.38
2023-09-10T22:31:45.451Z,96662.75
2023-09-10T22:34:11.923Z,96656.44
2023-09-10T22:36:39.324Z,96665.28
2023-09-10T22:39:06.254Z,96657.91
2023-09-10T22:41:32.751Z,96666.78
2023-09-10T22:43:59.318Z,96664.19
2023-09-10T22:46:27.150Z,96662.28
2023-09-10T22:48:53.568Z,96658.78
2023-09-10T22:51:20.009Z,96656.44
2023-09-10T22:53:51.447Z,96657.19
2023-09-10T22:56:24.114Z,96661.09
2023-09-10T22:58:50.765Z,96660.59
2023-09-10T23:01:17.957Z,96658.41
2023-09-10T23:03:44.679Z,96666.03
2023-09-10T23:06:11.619Z,96661.97
2023-09-10T23:08:38.229Z,96660.38
2023-09-10T23:11:06.213Z,96662.47
2023-09-10T23:13:32.689Z,96661.91
2023-09-10T23:15:59.576Z,96668.50
2023-09-10T23:18:26.147Z,96670.69
2023-09-10T23:20:52.629Z,96673.84
2023-09-10T23:23:19.074Z,96667.22
2023-09-10T23:25:45.509Z,96664.84
2023-09-10T23:28:11.989Z,96658.97
2023-09-10T23:30:38.365Z,96663.72
2023-09-10T23:33:05.264Z,96653.63
2023-09-10T23:35:35.472Z,96656.28
2023-09-10T23:38:02.001Z,96654.28
2023-09-10T23:40:28.416Z,96653.44
2023-09-10T23:42:54.786Z,96660.19
2023-09-10T23:45:21.227Z,96647.78
2023-09-10T23:47:47.730Z,96657.47
2023-09-10T23:50:14.190Z,96649.19
2023-09-10T23:52:40.603Z,96649.56
2023-09-10T23:55:08.503Z,96650.38
2023-09-10T23:57:34.966Z,96644.38
